sensor_id;sensor_type;location;lat;lon;timestamp;P1;durP1;ratioP1;P2;durP2;ratioP2
68987;SDS011;56038;46.080;11.116;2022-12-18T00:01:52;14.13;;;10.07;;
68987;SDS011;56038;46.080;11.116;2022-12-18T00:06:59;13.30;;;10.23;;
68987;SDS011;56038;46.080;11.116;2022-12-18T00:12:00;12.55;;;9.65;;
68987;SDS011;56038;46.080;11.116;2022-12-18T00:17:02;13.32;;;8.75;;
68987;SDS011;56038;46.080;11.116;2022-12-18T00:22:05;15.90;;;10.60;;
68987;SDS011;56038;46.080;11.116;2022-12-18T00:27:07;12.25;;;8.63;;
68987;SDS011;56038;46.080;11.116;2022-12-18T00:32:09;16.65;;;10.27;;
68987;SDS011;56038;46.080;11.116;2022-12-18T00:37:12;12.45;;;9.10;;
68987;SDS011;56038;46.080;11.116;2022-12-18T00:42:13;14.48;;;10.30;;
68987;SDS011;56038;46.080;11.116;2022-12-18T00:47:33;18.00;;;10.15;;
68987;SDS011;56038;46.080;11.116;2022-12-18T00:52:36;11.32;;;9.43;;
68987;SDS011;56038;46.080;11.116;2022-12-18T00:57:43;15.10;;;10.45;;
68987;SDS011;56038;46.080;11.116;2022-12-18T01:02:45;14.77;;;9.57;;
68987;SDS011;56038;46.080;11.116;2022-12-18T01:07:48;14.50;;;9.70;;
68987;SDS011;56038;46.080;11.116;2022-12-18T01:12:50;16.33;;;10.07;;
68987;SDS011;56038;46.080;11.116;2022-12-18T01:17:52;13.90;;;9.60;;
68987;SDS011;56038;46.080;11.116;2022-12-18T01:22:55;13.27;;;9.75;;
68987;SDS011;56038;46.080;11.116;2022-12-18T01:27:57;13.55;;;9.27;;
68987;SDS011;56038;46.080;11.116;2022-12-18T01:32:58;13.63;;;8.50;;
68987;SDS011;56038;46.080;11.116;2022-12-18T01:38:01;14.10;;;8.70;;
68987;SDS011;56038;46.080;11.116;2022-12-18T01:43:03;10.13;;;8.35;;
68987;SDS011;56038;46.080;11.116;2022-12-18T01:48:05;10.27;;;8.23;;
68987;SDS011;56038;46.080;11.116;2022-12-18T01:53:12;11.65;;;8.30;;
68987;SDS011;56038;46.080;11.116;2022-12-18T01:58:17;14.63;;;9.05;;
68987;SDS011;56038;46.080;11.116;2022-12-18T02:03:20;10.38;;;7.68;;
68987;SDS011;56038;46.080;11.116;2022-12-18T02:08:25;11.77;;;7.85;;
68987;SDS011;56038;46.080;11.116;2022-12-18T02:13:36;12.15;;;7.65;;
68987;SDS011;56038;46.080;11.116;2022-12-18T02:18:45;12.18;;;8.30;;
68987;SDS011;56038;46.080;11.116;2022-12-18T02:23:56;10.23;;;6.95;;
68987;SDS011;56038;46.080;11.116;2022-12-18T02:29:11;10.43;;;6.75;;
68987;SDS011;56038;46.080;11.116;2022-12-18T02:34:16;9.82;;;5.97;;
68987;SDS011;56038;46.080;11.116;2022-12-18T02:39:19;9.10;;;6.45;;
68987;SDS011;56038;46.080;11.116;2022-12-18T02:44:26;8.95;;;6.28;;
68987;SDS011;56038;46.080;11.116;2022-12-18T02:49:30;7.30;;;5.68;;
68987;SDS011;56038;46.080;11.116;2022-12-18T02:54:39;10.52;;;6.30;;
68987;SDS011;56038;46.080;11.116;2022-12-18T02:59:55;9.68;;;6.75;;
68987;SDS011;56038;46.080;11.116;2022-12-18T03:05:04;7.90;;;6.18;;
68987;SDS011;56038;46.080;11.116;2022-12-18T03:10:13;8.88;;;6.85;;
68987;SDS011;56038;46.080;11.116;2022-12-18T03:15:21;9.80;;;6.38;;
68987;SDS011;56038;46.080;11.116;2022-12-18T03:20:26;10.55;;;6.75;;
68987;SDS011;56038;46.080;11.116;2022-12-18T03:25:31;6.67;;;5.67;;
68987;SDS011;56038;46.080;11.116;2022-12-18T03:30:37;9.55;;;6.03;;
68987;SDS011;56038;46.080;11.116;2022-12-18T03:35:42;7.05;;;5.50;;
68987;SDS011;56038;46.080;11.116;2022-12-18T03:40:46;8.00;;;5.97;;
68987;SDS011;56038;46.080;11.116;2022-12-18T03:45:57;8.55;;;5.65;;
68987;SDS011;56038;46.080;11.116;2022-12-18T03:51:05;7.72;;;5.75;;
68987;SDS011;56038;46.080;11.116;2022-12-18T03:56:10;8.73;;;5.68;;
68987;SDS011;56038;46.080;11.116;2022-12-18T04:01:16;8.23;;;5.60;;
68987;SDS011;56038;46.080;11.116;2022-12-18T04:06:20;7.47;;;5.90;;
68987;SDS011;56038;46.080;11.116;2022-12-18T04:11:22;8.18;;;4.63;;
68987;SDS011;56038;46.080;11.116;2022-12-18T04:16:25;5.75;;;4.03;;
68987;SDS011;56038;46.080;11.116;2022-12-18T04:21:28;8.05;;;4.90;;
68987;SDS011;56038;46.080;11.116;2022-12-18T04:26:30;6.72;;;5.10;;
68987;SDS011;56038;46.080;11.116;2022-12-18T04:31:33;7.25;;;4.88;;
68987;SDS011;56038;46.080;11.116;2022-12-18T04:36:34;5.88;;;5.25;;
68987;SDS011;56038;46.080;11.116;2022-12-18T04:41:37;6.70;;;5.22;;
68987;SDS011;56038;46.080;11.116;2022-12-18T04:46:40;7.18;;;5.43;;
68987;SDS011;56038;46.080;11.116;2022-12-18T04:51:42;6.22;;;5.05;;
68987;SDS011;56038;46.080;11.116;2022-12-18T04:56:43;6.65;;;5.53;;
68987;SDS011;56038;46.080;11.116;2022-12-18T05:01:47;6.60;;;5.38;;
68987;SDS011;56038;46.080;11.116;2022-12-18T05:06:48;6.15;;;5.20;;
68987;SDS011;56038;46.080;11.116;2022-12-18T05:11:50;7.00;;;5.78;;
68987;SDS011;56038;46.080;11.116;2022-12-18T05:16:53;7.00;;;5.25;;
68987;SDS011;56038;46.080;11.116;2022-12-18T05:21:55;5.68;;;5.10;;
68987;SDS011;56038;46.080;11.116;2022-12-18T05:26:57;5.75;;;5.15;;
68987;SDS011;56038;46.080;11.116;2022-12-18T05:32:00;5.75;;;5.25;;
68987;SDS011;56038;46.080;11.116;2022-12-18T05:37:02;9.43;;;5.70;;
68987;SDS011;56038;46.080;11.116;2022-12-18T05:42:04;6.07;;;4.93;;
68987;SDS011;56038;46.080;11.116;2022-12-18T05:47:07;7.38;;;5.35;;
68987;SDS011;56038;46.080;11.116;2022-12-18T05:52:09;7.60;;;6.20;;
68987;SDS011;56038;46.080;11.116;2022-12-18T05:57:10;8.45;;;5.30;;
68987;SDS011;56038;46.080;11.116;2022-12-18T06:02:14;7.63;;;5.20;;
68987;SDS011;56038;46.080;11.116;2022-12-18T06:07:15;6.95;;;5.20;;
68987;SDS011;56038;46.080;11.116;2022-12-18T06:12:17;5.43;;;4.60;;
68987;SDS011;56038;46.080;11.116;2022-12-18T06:17:20;5.88;;;4.93;;
68987;SDS011;56038;46.080;11.116;2022-12-18T06:22:22;7.68;;;4.88;;
68987;SDS011;56038;46.080;11.116;2022-12-18T06:27:24;6.00;;;5.40;;
68987;SDS011;56038;46.080;11.116;2022-12-18T06:32:27;6.72;;;5.13;;
68987;SDS011;56038;46.080;11.116;2022-12-18T06:37:30;7.38;;;4.78;;
68987;SDS011;56038;46.080;11.116;2022-12-18T06:42:32;6.20;;;5.60;;
68987;SDS011;56038;46.080;11.116;2022-12-18T06:47:35;7.32;;;5.65;;
68987;SDS011;56038;46.080;11.116;2022-12-18T06:52:36;6.85;;;5.85;;
68987;SDS011;56038;46.080;11.116;2022-12-18T06:57:39;7.03;;;5.40;;
68987;SDS011;56038;46.080;11.116;2022-12-18T07:02:42;6.32;;;5.28;;
68987;SDS011;56038;46.080;11.116;2022-12-18T07:07:43;7.32;;;6.00;;
68987;SDS011;56038;46.080;11.116;2022-12-18T07:12:45;8.80;;;6.78;;
68987;SDS011;56038;46.080;11.116;2022-12-18T07:17:48;9.98;;;6.60;;
68987;SDS011;56038;46.080;11.116;2022-12-18T07:22:50;9.43;;;6.60;;
68987;SDS011;56038;46.080;11.116;2022-12-18T07:27:52;9.82;;;6.15;;
68987;SDS011;56038;46.080;11.116;2022-12-18T07:32:55;7.57;;;6.13;;
68987;SDS011;56038;46.080;11.116;2022-12-18T07:37:57;12.23;;;6.88;;
68987;SDS011;56038;46.080;11.116;2022-12-18T07:42:58;10.23;;;6.78;;
68987;SDS011;56038;46.080;11.116;2022-12-18T07:48:01;9.50;;;7.47;;
68987;SDS011;56038;46.080;11.116;2022-12-18T07:53:03;11.90;;;8.30;;
68987;SDS011;56038;46.080;11.116;2022-12-18T07:58:05;10.32;;;7.38;;
68987;SDS011;56038;46.080;11.116;2022-12-18T08:03:08;10.35;;;6.25;;
68987;SDS011;56038;46.080;11.116;2022-12-18T08:08:17;8.40;;;6.60;;
68987;SDS011;56038;46.080;11.116;2022-12-18T08:13:19;9.20;;;7.15;;
68987;SDS011;56038;46.080;11.116;2022-12-18T08:18:23;22.00;;;12.38;;
68987;SDS011;56038;46.080;11.116;2022-12-18T08:23:25;19.65;;;11.02;;
68987;SDS011;56038;46.080;11.116;2022-12-18T08:28:27;18.58;;;10.98;;
68987;SDS011;56038;46.080;11.116;2022-12-18T08:33:30;12.95;;;9.77;;
68987;SDS011;56038;46.080;11.116;2022-12-18T08:38:32;16.40;;;9.02;;
68987;SDS011;56038;46.080;11.116;2022-12-18T08:43:34;14.30;;;9.75;;
68987;SDS011;56038;46.080;11.116;2022-12-18T08:48:55;13.27;;;9.80;;
68987;SDS011;56038;46.080;11.116;2022-12-18T08:53:57;16.27;;;10.23;;
68987;SDS011;56038;46.080;11.116;2022-12-18T08:58:58;12.00;;;8.60;;
68987;SDS011;56038;46.080;11.116;2022-12-18T09:04:02;12.40;;;8.05;;
68987;SDS011;56038;46.080;11.116;2022-12-18T09:09:04;9.25;;;7.07;;
68987;SDS011;56038;46.080;11.116;2022-12-18T09:14:05;9.05;;;6.43;;
68987;SDS011;56038;46.080;11.116;2022-12-18T09:19:12;8.15;;;6.43;;
68987;SDS011;56038;46.080;11.116;2022-12-18T09:24:14;6.57;;;5.88;;
68987;SDS011;56038;46.080;11.116;2022-12-18T09:29:17;6.85;;;5.60;;
68987;SDS011;56038;46.080;11.116;2022-12-18T09:34:20;9.07;;;6.85;;
68987;SDS011;56038;46.080;11.116;2022-12-18T09:39:22;6.47;;;5.05;;
68987;SDS011;56038;46.080;11.116;2022-12-18T09:44:24;4.65;;;4.22;;
68987;SDS011;56038;46.080;11.116;2022-12-18T09:49:30;5.15;;;4.65;;
68987;SDS011;56038;46.080;11.116;2022-12-18T09:54:37;5.18;;;4.50;;
68987;SDS011;56038;46.080;11.116;2022-12-18T09:59:40;6.25;;;5.13;;
68987;SDS011;56038;46.080;11.116;2022-12-18T10:04:49;6.18;;;4.88;;
68987;SDS011;56038;46.080;11.116;2022-12-18T10:10:04;4.88;;;4.05;;
68987;SDS011;56038;46.080;11.116;2022-12-18T10:15:12;4.75;;;3.72;;
68987;SDS011;56038;46.080;11.116;2022-12-18T10:20:23;3.45;;;3.15;;
68987;SDS011;56038;46.080;11.116;2022-12-18T10:25:31;3.90;;;3.60;;
68987;SDS011;56038;46.080;11.116;2022-12-18T10:30:40;5.57;;;3.53;;
68987;SDS011;56038;46.080;11.116;2022-12-18T10:35:44;6.70;;;4.30;;
68987;SDS011;56038;46.080;11.116;2022-12-18T10:40:48;5.78;;;3.97;;
68987;SDS011;56038;46.080;11.116;2022-12-18T10:45:59;4.40;;;4.00;;
68987;SDS011;56038;46.080;11.116;2022-12-18T10:51:08;4.30;;;3.90;;
68987;SDS011;56038;46.080;11.116;2022-12-18T10:56:10;4.13;;;3.75;;
68987;SDS011;56038;46.080;11.116;2022-12-18T11:01:12;4.97;;;3.88;;
68987;SDS011;56038;46.080;11.116;2022-12-18T11:06:17;4.55;;;3.70;;
68987;SDS011;56038;46.080;11.116;2022-12-18T11:11:22;6.50;;;4.25;;
68987;SDS011;56038;46.080;11.116;2022-12-18T11:16:25;4.10;;;3.47;;
68987;SDS011;56038;46.080;11.116;2022-12-18T11:21:29;5.13;;;4.13;;
68987;SDS011;56038;46.080;11.116;2022-12-18T11:26:33;4.88;;;3.92;;
68987;SDS011;56038;46.080;11.116;2022-12-18T11:31:36;5.38;;;4.20;;
68987;SDS011;56038;46.080;11.116;2022-12-18T11:36:40;3.88;;;3.47;;
68987;SDS011;56038;46.080;11.116;2022-12-18T11:41:47;4.40;;;3.60;;
68987;SDS011;56038;46.080;11.116;2022-12-18T11:47:13;4.55;;;3.97;;
68987;SDS011;56038;46.080;11.116;2022-12-18T11:52:26;4.90;;;3.65;;
68987;SDS011;56038;46.080;11.116;2022-12-18T11:57:33;4.13;;;3.67;;
68987;SDS011;56038;46.080;11.116;2022-12-18T12:08:14;4.40;;;3.17;;
68987;SDS011;56038;46.080;11.116;2022-12-18T12:13:28;5.43;;;4.63;;
68987;SDS011;56038;46.080;11.116;2022-12-18T12:18:46;5.50;;;3.75;;
68987;SDS011;56038;46.080;11.116;2022-12-18T12:24:08;7.70;;;4.63;;
68987;SDS011;56038;46.080;11.116;2022-12-18T12:29:26;3.58;;;3.03;;
68987;SDS011;56038;46.080;11.116;2022-12-18T12:34:39;3.65;;;3.20;;
68987;SDS011;56038;46.080;11.116;2022-12-18T12:39:57;3.38;;;3.13;;
68987;SDS011;56038;46.080;11.116;2022-12-18T12:45:03;5.68;;;3.38;;
68987;SDS011;56038;46.080;11.116;2022-12-18T12:50:12;4.93;;;3.03;;
68987;SDS011;56038;46.080;11.116;2022-12-18T12:55:19;3.70;;;3.38;;
68987;SDS011;56038;46.080;11.116;2022-12-18T13:00:23;3.85;;;3.38;;
68987;SDS011;56038;46.080;11.116;2022-12-18T13:05:29;3.63;;;3.33;;
68987;SDS011;56038;46.080;11.116;2022-12-18T13:10:37;4.28;;;3.40;;
68987;SDS011;56038;46.080;11.116;2022-12-18T13:15:41;4.03;;;3.20;;
68987;SDS011;56038;46.080;11.116;2022-12-18T13:20:45;4.78;;;3.45;;
68987;SDS011;56038;46.080;11.116;2022-12-18T13:25:49;3.47;;;3.17;;
68987;SDS011;56038;46.080;11.116;2022-12-18T13:30:53;5.38;;;3.80;;
68987;SDS011;56038;46.080;11.116;2022-12-18T13:36:00;4.53;;;3.33;;
68987;SDS011;56038;46.080;11.116;2022-12-18T13:41:20;4.63;;;3.58;;
68987;SDS011;56038;46.080;11.116;2022-12-18T13:46:24;4.75;;;3.42;;
68987;SDS011;56038;46.080;11.116;2022-12-18T13:51:31;3.90;;;3.50;;
68987;SDS011;56038;46.080;11.116;2022-12-18T13:56:42;3.85;;;3.55;;
68987;SDS011;56038;46.080;11.116;2022-12-18T14:01:55;5.13;;;3.95;;
68987;SDS011;56038;46.080;11.116;2022-12-18T14:07:01;5.68;;;3.50;;
68987;SDS011;56038;46.080;11.116;2022-12-18T14:12:11;4.70;;;4.20;;
68987;SDS011;56038;46.080;11.116;2022-12-18T14:17:34;4.88;;;3.65;;
68987;SDS011;56038;46.080;11.116;2022-12-18T14:22:37;6.25;;;3.47;;
68987;SDS011;56038;46.080;11.116;2022-12-18T14:27:46;6.38;;;4.07;;
68987;SDS011;56038;46.080;11.116;2022-12-18T14:32:59;5.30;;;4.38;;
68987;SDS011;56038;46.080;11.116;2022-12-18T14:43:31;8.13;;;4.40;;
68987;SDS011;56038;46.080;11.116;2022-12-18T14:48:35;7.78;;;4.65;;
68987;SDS011;56038;46.080;11.116;2022-12-18T14:53:40;6.30;;;4.27;;
68987;SDS011;56038;46.080;11.116;2022-12-18T14:58:46;6.40;;;3.97;;
68987;SDS011;56038;46.080;11.116;2022-12-18T15:03:50;5.93;;;3.55;;
68987;SDS011;56038;46.080;11.116;2022-12-18T15:08:52;5.80;;;4.35;;
68987;SDS011;56038;46.080;11.116;2022-12-18T15:13:57;8.27;;;5.25;;
68987;SDS011;56038;46.080;11.116;2022-12-18T15:18:59;8.73;;;4.88;;
68987;SDS011;56038;46.080;11.116;2022-12-18T15:24:02;8.13;;;4.78;;
68987;SDS011;56038;46.080;11.116;2022-12-18T15:29:15;7.50;;;4.70;;
68987;SDS011;56038;46.080;11.116;2022-12-18T15:34:21;6.38;;;5.00;;
68987;SDS011;56038;46.080;11.116;2022-12-18T15:39:23;7.05;;;5.03;;
68987;SDS011;56038;46.080;11.116;2022-12-18T15:44:26;7.18;;;5.00;;
68987;SDS011;56038;46.080;11.116;2022-12-18T15:49:29;8.57;;;6.68;;
68987;SDS011;56038;46.080;11.116;2022-12-18T15:54:31;9.32;;;6.70;;
68987;SDS011;56038;46.080;11.116;2022-12-18T15:59:52;8.65;;;6.75;;
68987;SDS011;56038;46.080;11.116;2022-12-18T16:04:57;9.50;;;6.50;;
68987;SDS011;56038;46.080;11.116;2022-12-18T16:09:59;8.70;;;6.50;;
68987;SDS011;56038;46.080;11.116;2022-12-18T16:15:03;8.80;;;6.22;;
68987;SDS011;56038;46.080;11.116;2022-12-18T16:20:07;7.73;;;6.37;;
68987;SDS011;56038;46.080;11.116;2022-12-18T16:25:16;9.20;;;6.55;;
68987;SDS011;56038;46.080;11.116;2022-12-18T17:54:58;27.60;;;16.15;;
68987;SDS011;56038;46.080;11.116;2022-12-18T17:59:59;24.58;;;15.20;;
68987;SDS011;56038;46.080;11.116;2022-12-18T18:05:02;24.40;;;16.42;;
68987;SDS011;56038;46.080;11.116;2022-12-18T18:10:20;24.67;;;15.07;;
68987;SDS011;56038;46.080;11.116;2022-12-18T18:15:22;24.05;;;14.68;;
68987;SDS011;56038;46.080;11.116;2022-12-18T18:20:24;22.05;;;13.95;;
68987;SDS011;56038;46.080;11.116;2022-12-18T18:25:30;20.67;;;13.47;;
68987;SDS011;56038;46.080;11.116;2022-12-18T18:30:41;20.05;;;12.70;;
68987;SDS011;56038;46.080;11.116;2022-12-18T18:35:42;16.38;;;11.93;;
68987;SDS011;56038;46.080;11.116;2022-12-18T18:40:46;21.88;;;12.68;;
68987;SDS011;56038;46.080;11.116;2022-12-18T19:31:31;18.67;;;14.13;;
68987;SDS011;56038;46.080;11.116;2022-12-18T19:36:39;25.55;;;15.80;;
68987;SDS011;56038;46.080;11.116;2022-12-18T19:41:44;27.42;;;16.40;;
68987;SDS011;56038;46.080;11.116;2022-12-18T19:47:02;27.92;;;18.00;;
68987;SDS011;56038;46.080;11.116;2022-12-18T19:52:04;27.15;;;18.80;;
68987;SDS011;56038;46.080;11.116;2022-12-18T19:57:35;24.45;;;16.35;;
68987;SDS011;56038;46.080;11.116;2022-12-18T20:07:40;23.73;;;15.48;;
68987;SDS011;56038;46.080;11.116;2022-12-18T20:12:41;22.00;;;14.75;;
68987;SDS011;56038;46.080;11.116;2022-12-18T20:17:45;21.02;;;13.52;;
68987;SDS011;56038;46.080;11.116;2022-12-18T20:22:47;21.85;;;12.70;;
68987;SDS011;56038;46.080;11.116;2022-12-18T20:27:49;20.27;;;12.98;;
68987;SDS011;56038;46.080;11.116;2022-12-18T20:32:52;20.45;;;12.43;;
68987;SDS011;56038;46.080;11.116;2022-12-18T20:37:54;16.10;;;11.18;;
68987;SDS011;56038;46.080;11.116;2022-12-18T20:42:55;17.38;;;11.93;;
68987;SDS011;56038;46.080;11.116;2022-12-18T20:47:59;13.85;;;10.75;;
68987;SDS011;56038;46.080;11.116;2022-12-18T20:53:01;12.43;;;9.57;;
68987;SDS011;56038;46.080;11.116;2022-12-18T20:58:03;13.95;;;9.55;;
68987;SDS011;56038;46.080;11.116;2022-12-18T21:03:07;14.00;;;9.48;;
68987;SDS011;56038;46.080;11.116;2022-12-18T21:13:54;15.00;;;9.20;;
68987;SDS011;56038;46.080;11.116;2022-12-18T21:18:57;19.10;;;9.82;;
68987;SDS011;56038;46.080;11.116;2022-12-18T21:23:59;14.55;;;9.65;;
68987;SDS011;56038;46.080;11.116;2022-12-18T21:29:02;15.27;;;8.93;;
68987;SDS011;56038;46.080;11.116;2022-12-18T21:34:07;12.73;;;9.02;;
68987;SDS011;56038;46.080;11.116;2022-12-18T21:39:16;14.40;;;10.10;;
68987;SDS011;56038;46.080;11.116;2022-12-18T21:44:30;15.65;;;9.77;;
68987;SDS011;56038;46.080;11.116;2022-12-18T21:49:33;13.30;;;9.68;;
68987;SDS011;56038;46.080;11.116;2022-12-18T21:54:35;19.05;;;11.40;;
68987;SDS011;56038;46.080;11.116;2022-12-18T21:59:38;17.00;;;9.90;;
68987;SDS011;56038;46.080;11.116;2022-12-18T22:04:43;14.68;;;10.05;;
68987;SDS011;56038;46.080;11.116;2022-12-18T22:09:45;13.00;;;9.15;;
68987;SDS011;56038;46.080;11.116;2022-12-18T22:14:47;13.77;;;8.95;;
68987;SDS011;56038;46.080;11.116;2022-12-18T22:19:52;14.82;;;8.95;;
68987;SDS011;56038;46.080;11.116;2022-12-18T22:24:54;11.70;;;8.88;;
68987;SDS011;56038;46.080;11.116;2022-12-18T22:29:55;13.20;;;9.35;;
68987;SDS011;56038;46.080;11.116;2022-12-18T22:35:08;12.13;;;8.93;;
68987;SDS011;56038;46.080;11.116;2022-12-18T22:40:11;16.15;;;9.55;;
68987;SDS011;56038;46.080;11.116;2022-12-18T22:45:22;16.00;;;10.55;;
68987;SDS011;56038;46.080;11.116;2022-12-18T22:50:33;12.90;;;10.13;;
68987;SDS011;56038;46.080;11.116;2022-12-18T22:55:35;14.68;;;8.70;;
68987;SDS011;56038;46.080;11.116;2022-12-18T23:00:37;11.38;;;9.00;;
68987;SDS011;56038;46.080;11.116;2022-12-18T23:05:42;12.70;;;9.25;;
68987;SDS011;56038;46.080;11.116;2022-12-18T23:10:44;12.52;;;8.73;;
68987;SDS011;56038;46.080;11.116;2022-12-18T23:15:45;11.88;;;8.48;;
68987;SDS011;56038;46.080;11.116;2022-12-18T23:20:49;11.77;;;9.32;;
68987;SDS011;56038;46.080;11.116;2022-12-18T23:25:58;14.25;;;9.63;;
68987;SDS011;56038;46.080;11.116;2022-12-18T23:31:01;11.05;;;8.45;;
68987;SDS011;56038;46.080;11.116;2022-12-18T23:36:06;15.00;;;9.63;;
68987;SDS011;56038;46.080;11.116;2022-12-18T23:41:10;12.13;;;8.95;;
68987;SDS011;56038;46.080;11.116;2022-12-18T23:46:16;11.48;;;8.60;;
68987;SDS011;56038;46.080;11.116;2022-12-18T23:51:21;16.23;;;9.98;;
68987;SDS011;56038;46.080;11.116;2022-12-18T23:56:25;17.90;;;10.18;;
